sensor_id;sensor_type;location;lat;lon;timestamp;temperature;humidity
37052;DHT22;22964;52.272;13.356;2023-08-20T00:00:04;29.20;52.70
37052;DHT22;22964;52.272;13.356;2023-08-20T00:02:38;29.10;52.60
37052;DHT22;22964;52.272;13.356;2023-08-20T00:05:05;29.10;52.60
37052;DHT22;22964;52.272;13.356;2023-08-20T00:07:31;29.10;52.60
37052;DHT22;22964;52.272;13.356;2023-08-20T00:09:57;29.10;52.60
37052;DHT22;22964;52.272;13.356;2023-08-20T00:12:23;29.00;52.50
37052;DHT22;22964;52.272;13.356;2023-08-20T00:17:22;29.00;52.80
37052;DHT22;22964;52.272;13.356;2023-08-20T00:19:50;29.00;52.60
37052;DHT22;22964;52.272;13.356;2023-08-20T00:22:16;29.00;52.70
37052;DHT22;22964;52.272;13.356;2023-08-20T00:24:42;28.90;52.60
37052;DHT22;22964;52.272;13.356;2023-08-20T00:27:08;28.90;52.70
37052;DHT22;22964;52.272;13.356;2023-08-20T00:29:34;28.90;52.70
37052;DHT22;22964;52.272;13.356;2023-08-20T00:32:00;28.90;52.90
37052;DHT22;22964;52.272;13.356;2023-08-20T00:34:25;28.90;52.90
37052;DHT22;22964;52.272;13.356;2023-08-20T00:36:51;28.90;53.10
37052;DHT22;22964;52.272;13.356;2023-08-20T00:39:17;28.80;53.10
37052;DHT22;22964;52.272;13.356;2023-08-20T00:41:42;28.80;53.10
37052;DHT22;22964;52.272;13.356;2023-08-20T00:44:08;28.80;53.10
37052;DHT22;22964;52.272;13.356;2023-08-20T00:46:34;28.70;53.30
37052;DHT22;22964;52.272;13.356;2023-08-20T00:49:00;28.70;53.30
37052;DHT22;22964;52.272;13.356;2023-08-20T00:51:26;28.60;53.40
37052;DHT22;22964;52.272;13.356;2023-08-20T00:53:52;28.60;53.50
37052;DHT22;22964;52.272;13.356;2023-08-20T00:56:18;28.60;53.60
37052;DHT22;22964;52.272;13.356;2023-08-20T00:58:44;28.50;53.60
37052;DHT22;22964;52.272;13.356;2023-08-20T01:01:10;28.50;53.80
37052;DHT22;22964;52.272;13.356;2023-08-20T01:03:35;28.40;53.80
37052;DHT22;22964;52.272;13.356;2023-08-20T01:09:05;28.30;55.00
37052;DHT22;22964;52.272;13.356;2023-08-20T01:11:37;28.30;53.50
37052;DHT22;22964;52.272;13.356;2023-08-20T01:14:14;28.30;54.50
37052;DHT22;22964;52.272;13.356;2023-08-20T01:16:41;28.20;55.30
37052;DHT22;22964;52.272;13.356;2023-08-20T01:19:10;28.20;54.90
37052;DHT22;22964;52.272;13.356;2023-08-20T01:22:09;28.10;55.50
37052;DHT22;22964;52.272;13.356;2023-08-20T01:24:57;28.10;56.30
37052;DHT22;22964;52.272;13.356;2023-08-20T01:30:16;28.10;56.70
37052;DHT22;22964;52.272;13.356;2023-08-20T01:32:43;28.10;56.00
37052;DHT22;22964;52.272;13.356;2023-08-20T01:35:14;28.10;56.20
37052;DHT22;22964;52.272;13.356;2023-08-20T01:37:41;28.00;56.80
37052;DHT22;22964;52.272;13.356;2023-08-20T01:40:09;28.00;56.50
37052;DHT22;22964;52.272;13.356;2023-08-20T01:42:38;28.00;56.70
37052;DHT22;22964;52.272;13.356;2023-08-20T01:45:04;28.00;56.80
37052;DHT22;22964;52.272;13.356;2023-08-20T01:47:32;27.90;56.90
37052;DHT22;22964;52.272;13.356;2023-08-20T01:49:59;28.00;57.10
37052;DHT22;22964;52.272;13.356;2023-08-20T01:52:25;28.00;57.10
37052;DHT22;22964;52.272;13.356;2023-08-20T01:54:52;28.00;57.30
37052;DHT22;22964;52.272;13.356;2023-08-20T01:57:18;27.90;57.40
37052;DHT22;22964;52.272;13.356;2023-08-20T01:59:44;27.90;57.50
37052;DHT22;22964;52.272;13.356;2023-08-20T02:02:10;27.90;57.70
37052;DHT22;22964;52.272;13.356;2023-08-20T02:04:36;27.90;58.00
37052;DHT22;22964;52.272;13.356;2023-08-20T02:07:01;27.90;58.10
37052;DHT22;22964;52.272;13.356;2023-08-20T02:09:27;27.90;58.20
37052;DHT22;22964;52.272;13.356;2023-08-20T02:11:53;27.90;58.20
37052;DHT22;22964;52.272;13.356;2023-08-20T02:14:19;27.90;58.40
37052;DHT22;22964;52.272;13.356;2023-08-20T02:16:46;27.90;58.40
37052;DHT22;22964;52.272;13.356;2023-08-20T02:19:12;27.80;58.70
37052;DHT22;22964;52.272;13.356;2023-08-20T02:21:37;27.80;58.60
37052;DHT22;22964;52.272;13.356;2023-08-20T02:24:04;27.80;58.80
37052;DHT22;22964;52.272;13.356;2023-08-20T02:26:30;27.80;58.90
37052;DHT22;22964;52.272;13.356;2023-08-20T02:28:56;27.80;58.90
37052;DHT22;22964;52.272;13.356;2023-08-20T02:31:22;27.80;59.00
37052;DHT22;22964;52.272;13.356;2023-08-20T02:33:47;27.80;59.30
37052;DHT22;22964;52.272;13.356;2023-08-20T02:36:13;27.80;59.30
37052;DHT22;22964;52.272;13.356;2023-08-20T02:38:39;27.80;59.40
37052;DHT22;22964;52.272;13.356;2023-08-20T02:41:05;27.70;59.40
37052;DHT22;22964;52.272;13.356;2023-08-20T02:43:30;27.70;59.40
37052;DHT22;22964;52.272;13.356;2023-08-20T02:45:56;27.70;59.50
37052;DHT22;22964;52.272;13.356;2023-08-20T02:48:22;27.70;59.60
37052;DHT22;22964;52.272;13.356;2023-08-20T02:50:53;27.70;59.70
37052;DHT22;22964;52.272;13.356;2023-08-20T02:53:20;27.70;59.80
37052;DHT22;22964;52.272;13.356;2023-08-20T02:55:46;27.60;59.90
37052;DHT22;22964;52.272;13.356;2023-08-20T02:58:12;27.60;59.80
37052;DHT22;22964;52.272;13.356;2023-08-20T03:00:38;27.60;60.00
37052;DHT22;22964;52.272;13.356;2023-08-20T03:03:05;27.60;60.10
37052;DHT22;22964;52.272;13.356;2023-08-20T03:05:34;27.60;60.20
37052;DHT22;22964;52.272;13.356;2023-08-20T03:08:01;27.60;60.30
37052;DHT22;22964;52.272;13.356;2023-08-20T03:10:27;27.50;60.50
37052;DHT22;22964;52.272;13.356;2023-08-20T03:12:53;27.50;60.60
37052;DHT22;22964;52.272;13.356;2023-08-20T03:15:19;27.50;60.70
37052;DHT22;22964;52.272;13.356;2023-08-20T03:17:45;27.50;60.90
37052;DHT22;22964;52.272;13.356;2023-08-20T03:20:11;27.50;60.90
37052;DHT22;22964;52.272;13.356;2023-08-20T03:22:37;27.40;61.00
37052;DHT22;22964;52.272;13.356;2023-08-20T03:25:04;27.40;61.40
37052;DHT22;22964;52.272;13.356;2023-08-20T03:27:30;27.40;61.50
37052;DHT22;22964;52.272;13.356;2023-08-20T03:29:56;27.30;61.50
37052;DHT22;22964;52.272;13.356;2023-08-20T03:32:22;27.30;61.70
37052;DHT22;22964;52.272;13.356;2023-08-20T03:34:49;27.30;61.90
37052;DHT22;22964;52.272;13.356;2023-08-20T03:37:17;27.30;62.10
37052;DHT22;22964;52.272;13.356;2023-08-20T03:39:43;27.30;62.20
37052;DHT22;22964;52.272;13.356;2023-08-20T03:42:09;27.30;62.30
37052;DHT22;22964;52.272;13.356;2023-08-20T03:44:34;27.20;62.40
37052;DHT22;22964;52.272;13.356;2023-08-20T03:47:01;27.20;62.70
37052;DHT22;22964;52.272;13.356;2023-08-20T03:49:26;27.20;62.80
37052;DHT22;22964;52.272;13.356;2023-08-20T03:51:52;27.20;63.00
37052;DHT22;22964;52.272;13.356;2023-08-20T03:54:18;27.20;63.10
37052;DHT22;22964;52.272;13.356;2023-08-20T03:56:43;27.20;63.30
37052;DHT22;22964;52.272;13.356;2023-08-20T03:59:09;27.10;63.50
37052;DHT22;22964;52.272;13.356;2023-08-20T04:01:35;27.10;63.60
37052;DHT22;22964;52.272;13.356;2023-08-20T04:04:03;27.10;63.80
37052;DHT22;22964;52.272;13.356;2023-08-20T04:06:29;27.10;64.00
37052;DHT22;22964;52.272;13.356;2023-08-20T04:08:55;27.10;64.00
37052;DHT22;22964;52.272;13.356;2023-08-20T04:11:20;27.00;64.90
37052;DHT22;22964;52.272;13.356;2023-08-20T04:13:46;27.00;64.30
37052;DHT22;22964;52.272;13.356;2023-08-20T04:16:12;27.00;64.40
37052;DHT22;22964;52.272;13.356;2023-08-20T04:18:39;27.00;64.60
37052;DHT22;22964;52.272;13.356;2023-08-20T04:21:05;26.90;64.70
37052;DHT22;22964;52.272;13.356;2023-08-20T04:23:31;26.90;64.80
37052;DHT22;22964;52.272;13.356;2023-08-20T04:25:56;26.90;65.00
37052;DHT22;22964;52.272;13.356;2023-08-20T04:28:22;26.90;65.20
37052;DHT22;22964;52.272;13.356;2023-08-20T04:30:48;26.90;65.30
37052;DHT22;22964;52.272;13.356;2023-08-20T04:33:15;26.90;65.40
37052;DHT22;22964;52.272;13.356;2023-08-20T04:35:44;26.80;65.60
37052;DHT22;22964;52.272;13.356;2023-08-20T04:38:10;26.80;65.70
37052;DHT22;22964;52.272;13.356;2023-08-20T04:40:35;26.80;65.90
37052;DHT22;22964;52.272;13.356;2023-08-20T04:43:01;26.80;66.10
37052;DHT22;22964;52.272;13.356;2023-08-20T04:45:28;26.80;66.30
37052;DHT22;22964;52.272;13.356;2023-08-20T04:47:53;26.80;66.50
37052;DHT22;22964;52.272;13.356;2023-08-20T04:50:20;26.80;66.60
37052;DHT22;22964;52.272;13.356;2023-08-20T04:52:45;26.80;66.80
37052;DHT22;22964;52.272;13.356;2023-08-20T04:55:12;26.80;67.10
37052;DHT22;22964;52.272;13.356;2023-08-20T04:57:38;26.80;67.10
37052;DHT22;22964;52.272;13.356;2023-08-20T05:00:05;26.80;67.20
37052;DHT22;22964;52.272;13.356;2023-08-20T05:02:31;26.80;67.50
37052;DHT22;22964;52.272;13.356;2023-08-20T05:04:59;26.80;67.70
37052;DHT22;22964;52.272;13.356;2023-08-20T05:07:25;26.80;67.70
37052;DHT22;22964;52.272;13.356;2023-08-20T05:09:51;26.80;67.80
37052;DHT22;22964;52.272;13.356;2023-08-20T05:12:17;26.80;68.20
37052;DHT22;22964;52.272;13.356;2023-08-20T05:14:44;26.80;68.20
37052;DHT22;22964;52.272;13.356;2023-08-20T05:17:09;26.90;68.40
37052;DHT22;22964;52.272;13.356;2023-08-20T05:19:35;26.80;68.40
37052;DHT22;22964;52.272;13.356;2023-08-20T05:22:01;26.90;68.60
37052;DHT22;22964;52.272;13.356;2023-08-20T05:24:31;26.90;68.70
37052;DHT22;22964;52.272;13.356;2023-08-20T05:27:12;26.90;69.70
37052;DHT22;22964;52.272;13.356;2023-08-20T05:29:40;26.90;69.80
37052;DHT22;22964;52.272;13.356;2023-08-20T05:32:07;27.00;69.00
37052;DHT22;22964;52.272;13.356;2023-08-20T05:34:33;27.00;69.20
37052;DHT22;22964;52.272;13.356;2023-08-20T05:36:59;27.00;69.20
37052;DHT22;22964;52.272;13.356;2023-08-20T05:39:27;27.10;69.40
37052;DHT22;22964;52.272;13.356;2023-08-20T05:41:54;27.10;69.40
37052;DHT22;22964;52.272;13.356;2023-08-20T05:44:22;27.20;69.60
37052;DHT22;22964;52.272;13.356;2023-08-20T05:46:48;27.20;69.40
37052;DHT22;22964;52.272;13.356;2023-08-20T05:49:15;27.30;69.30
37052;DHT22;22964;52.272;13.356;2023-08-20T05:51:44;27.30;69.30
37052;DHT22;22964;52.272;13.356;2023-08-20T05:54:11;27.30;69.30
37052;DHT22;22964;52.272;13.356;2023-08-20T05:56:37;27.30;69.20
37052;DHT22;22964;52.272;13.356;2023-08-20T05:59:03;27.40;69.30
37052;DHT22;22964;52.272;13.356;2023-08-20T06:01:29;27.40;69.20
37052;DHT22;22964;52.272;13.356;2023-08-20T06:03:55;27.40;69.40
37052;DHT22;22964;52.272;13.356;2023-08-20T06:06:21;27.40;68.90
37052;DHT22;22964;52.272;13.356;2023-08-20T06:08:47;27.40;69.00
37052;DHT22;22964;52.272;13.356;2023-08-20T06:11:13;27.40;68.60
37052;DHT22;22964;52.272;13.356;2023-08-20T06:13:39;27.50;68.60
37052;DHT22;22964;52.272;13.356;2023-08-20T06:16:06;27.50;68.50
37052;DHT22;22964;52.272;13.356;2023-08-20T06:18:32;27.50;68.50
37052;DHT22;22964;52.272;13.356;2023-08-20T06:20:58;27.50;68.50
37052;DHT22;22964;52.272;13.356;2023-08-20T06:23:24;27.50;68.50
37052;DHT22;22964;52.272;13.356;2023-08-20T06:25:52;27.50;68.80
37052;DHT22;22964;52.272;13.356;2023-08-20T06:28:19;27.50;68.70
37052;DHT22;22964;52.272;13.356;2023-08-20T06:30:45;27.50;68.30
37052;DHT22;22964;52.272;13.356;2023-08-20T06:33:11;27.50;68.20
37052;DHT22;22964;52.272;13.356;2023-08-20T06:35:37;27.60;68.50
37052;DHT22;22964;52.272;13.356;2023-08-20T06:38:03;27.60;68.50
37052;DHT22;22964;52.272;13.356;2023-08-20T06:40:29;27.60;68.40
37052;DHT22;22964;52.272;13.356;2023-08-20T06:42:55;27.60;68.20
37052;DHT22;22964;52.272;13.356;2023-08-20T06:45:20;27.70;67.90
37052;DHT22;22964;52.272;13.356;2023-08-20T06:47:46;27.70;67.50
37052;DHT22;22964;52.272;13.356;2023-08-20T06:50:12;27.70;67.10
37052;DHT22;22964;52.272;13.356;2023-08-20T06:52:37;27.70;67.00
37052;DHT22;22964;52.272;13.356;2023-08-20T06:55:03;27.70;67.20
37052;DHT22;22964;52.272;13.356;2023-08-20T06:57:29;27.70;67.60
37052;DHT22;22964;52.272;13.356;2023-08-20T06:59:55;27.80;67.70
37052;DHT22;22964;52.272;13.356;2023-08-20T07:02:21;27.80;67.40
37052;DHT22;22964;52.272;13.356;2023-08-20T07:04:46;27.90;67.10
37052;DHT22;22964;52.272;13.356;2023-08-20T07:07:12;27.90;66.70
37052;DHT22;22964;52.272;13.356;2023-08-20T07:09:40;28.00;66.50
37052;DHT22;22964;52.272;13.356;2023-08-20T07:12:06;28.10;66.30
37052;DHT22;22964;52.272;13.356;2023-08-20T07:14:32;28.10;65.90
37052;DHT22;22964;52.272;13.356;2023-08-20T07:16:59;28.00;65.40
37052;DHT22;22964;52.272;13.356;2023-08-20T07:19:25;28.00;65.10
37052;DHT22;22964;52.272;13.356;2023-08-20T07:21:51;28.00;65.10
37052;DHT22;22964;52.272;13.356;2023-08-20T07:24:17;28.00;65.30
37052;DHT22;22964;52.272;13.356;2023-08-20T07:26:43;28.00;65.40
37052;DHT22;22964;52.272;13.356;2023-08-20T07:29:09;28.10;65.50
37052;DHT22;22964;52.272;13.356;2023-08-20T07:31:35;28.10;64.20
37052;DHT22;22964;52.272;13.356;2023-08-20T07:34:02;28.20;63.60
37052;DHT22;22964;52.272;13.356;2023-08-20T07:36:28;28.30;62.90
37052;DHT22;22964;52.272;13.356;2023-08-20T07:38:54;28.40;62.20
37052;DHT22;22964;52.272;13.356;2023-08-20T07:41:21;28.40;61.50
37052;DHT22;22964;52.272;13.356;2023-08-20T07:43:48;28.50;61.20
37052;DHT22;22964;52.272;13.356;2023-08-20T07:46:14;28.60;60.30
37052;DHT22;22964;52.272;13.356;2023-08-20T07:48:41;28.60;60.00
37052;DHT22;22964;52.272;13.356;2023-08-20T07:51:07;28.70;59.90
37052;DHT22;22964;52.272;13.356;2023-08-20T07:53:34;28.80;59.90
37052;DHT22;22964;52.272;13.356;2023-08-20T07:56:00;28.90;59.50
37052;DHT22;22964;52.272;13.356;2023-08-20T07:58:27;29.00;59.00
37052;DHT22;22964;52.272;13.356;2023-08-20T08:00:54;29.10;58.00
37052;DHT22;22964;52.272;13.356;2023-08-20T08:03:20;29.20;57.90
37052;DHT22;22964;52.272;13.356;2023-08-20T08:05:49;29.30;57.70
37052;DHT22;22964;52.272;13.356;2023-08-20T08:08:16;29.30;56.40
37052;DHT22;22964;52.272;13.356;2023-08-20T08:10:42;29.40;56.50
37052;DHT22;22964;52.272;13.356;2023-08-20T08:13:11;29.50;56.60
37052;DHT22;22964;52.272;13.356;2023-08-20T08:15:36;29.60;56.70
37052;DHT22;22964;52.272;13.356;2023-08-20T08:18:02;29.70;56.60
37052;DHT22;22964;52.272;13.356;2023-08-20T08:20:29;29.80;56.40
37052;DHT22;22964;52.272;13.356;2023-08-20T08:22:54;30.00;56.10
37052;DHT22;22964;52.272;13.356;2023-08-20T08:25:20;30.10;56.00
37052;DHT22;22964;52.272;13.356;2023-08-20T08:27:46;30.10;55.90
37052;DHT22;22964;52.272;13.356;2023-08-20T08:30:12;30.30;55.80
37052;DHT22;22964;52.272;13.356;2023-08-20T08:32:37;30.40;55.40
37052;DHT22;22964;52.272;13.356;2023-08-20T08:35:03;30.60;55.40
37052;DHT22;22964;52.272;13.356;2023-08-20T08:37:29;30.70;55.10
37052;DHT22;22964;52.272;13.356;2023-08-20T08:39:55;30.90;54.30
37052;DHT22;22964;52.272;13.356;2023-08-20T08:42:22;31.00;54.10
37052;DHT22;22964;52.272;13.356;2023-08-20T08:44:49;31.10;53.40
37052;DHT22;22964;52.272;13.356;2023-08-20T08:47:16;31.20;53.50
37052;DHT22;22964;52.272;13.356;2023-08-20T08:49:42;31.40;53.30
37052;DHT22;22964;52.272;13.356;2023-08-20T08:52:10;31.50;53.00
37052;DHT22;22964;52.272;13.356;2023-08-20T08:54:36;31.60;52.80
37052;DHT22;22964;52.272;13.356;2023-08-20T08:57:02;31.70;52.50
37052;DHT22;22964;52.272;13.356;2023-08-20T08:59:28;31.90;52.20
37052;DHT22;22964;52.272;13.356;2023-08-20T09:01:54;31.90;51.90
37052;DHT22;22964;52.272;13.356;2023-08-20T09:04:22;32.00;52.30
37052;DHT22;22964;52.272;13.356;2023-08-20T09:06:53;32.00;51.40
37052;DHT22;22964;52.272;13.356;2023-08-20T09:09:21;32.10;51.20
37052;DHT22;22964;52.272;13.356;2023-08-20T09:11:47;32.10;51.70
37052;DHT22;22964;52.272;13.356;2023-08-20T09:14:32;32.30;51.70
37052;DHT22;22964;52.272;13.356;2023-08-20T09:16:59;32.30;50.30
37052;DHT22;22964;52.272;13.356;2023-08-20T09:19:29;32.40;50.90
37052;DHT22;22964;52.272;13.356;2023-08-20T09:22:01;32.50;50.20
37052;DHT22;22964;52.272;13.356;2023-08-20T09:24:42;32.50;50.30
37052;DHT22;22964;52.272;13.356;2023-08-20T09:27:08;32.50;50.00
37052;DHT22;22964;52.272;13.356;2023-08-20T09:29:55;32.50;50.30
37052;DHT22;22964;52.272;13.356;2023-08-20T09:32:27;32.50;49.80
37052;DHT22;22964;52.272;13.356;2023-08-20T09:34:55;32.60;50.30
37052;DHT22;22964;52.272;13.356;2023-08-20T09:37:22;32.60;50.60
37052;DHT22;22964;52.272;13.356;2023-08-20T09:39:48;32.70;50.30
37052;DHT22;22964;52.272;13.356;2023-08-20T09:42:15;32.70;50.30
37052;DHT22;22964;52.272;13.356;2023-08-20T09:44:43;32.80;50.10
37052;DHT22;22964;52.272;13.356;2023-08-20T09:47:10;32.90;50.60
37052;DHT22;22964;52.272;13.356;2023-08-20T09:49:44;32.90;49.90
37052;DHT22;22964;52.272;13.356;2023-08-20T09:52:12;32.90;49.80
37052;DHT22;22964;52.272;13.356;2023-08-20T09:57:39;33.10;49.10
37052;DHT22;22964;52.272;13.356;2023-08-20T10:00:07;33.30;49.00
37052;DHT22;22964;52.272;13.356;2023-08-20T10:02:42;33.40;49.60
37052;DHT22;22964;52.272;13.356;2023-08-20T10:05:09;33.60;49.90
37052;DHT22;22964;52.272;13.356;2023-08-20T10:07:36;33.70;49.40
37052;DHT22;22964;52.272;13.356;2023-08-20T10:10:04;33.80;49.20
37052;DHT22;22964;52.272;13.356;2023-08-20T10:12:31;34.10;48.60
37052;DHT22;22964;52.272;13.356;2023-08-20T10:14:57;34.20;48.50
37052;DHT22;22964;52.272;13.356;2023-08-20T10:17:24;34.30;48.40
37052;DHT22;22964;52.272;13.356;2023-08-20T10:19:53;34.50;48.10
37052;DHT22;22964;52.272;13.356;2023-08-20T10:22:19;34.60;47.40
37052;DHT22;22964;52.272;13.356;2023-08-20T10:24:51;34.70;47.40
37052;DHT22;22964;52.272;13.356;2023-08-20T10:27:27;34.80;46.50
37052;DHT22;22964;52.272;13.356;2023-08-20T10:29:54;34.90;46.20
37052;DHT22;22964;52.272;13.356;2023-08-20T10:32:21;35.00;46.80
37052;DHT22;22964;52.272;13.356;2023-08-20T10:35:06;35.00;46.50
37052;DHT22;22964;52.272;13.356;2023-08-20T10:37:34;35.10;45.90
37052;DHT22;22964;52.272;13.356;2023-08-20T10:40:00;35.20;45.80
37052;DHT22;22964;52.272;13.356;2023-08-20T10:42:26;35.30;45.90
37052;DHT22;22964;52.272;13.356;2023-08-20T10:44:58;35.40;45.30
37052;DHT22;22964;52.272;13.356;2023-08-20T10:47:25;35.40;43.90
37052;DHT22;22964;52.272;13.356;2023-08-20T10:49:54;35.50;44.80
37052;DHT22;22964;52.272;13.356;2023-08-20T10:52:22;35.50;44.10
37052;DHT22;22964;52.272;13.356;2023-08-20T10:54:50;35.60;44.40
37052;DHT22;22964;52.272;13.356;2023-08-20T10:57:16;35.60;43.90
37052;DHT22;22964;52.272;13.356;2023-08-20T10:59:42;35.70;44.10
37052;DHT22;22964;52.272;13.356;2023-08-20T11:02:14;35.70;44.10
37052;DHT22;22964;52.272;13.356;2023-08-20T11:04:41;35.80;43.30
37052;DHT22;22964;52.272;13.356;2023-08-20T11:07:07;35.90;44.10
37052;DHT22;22964;52.272;13.356;2023-08-20T11:09:33;36.00;43.80
37052;DHT22;22964;52.272;13.356;2023-08-20T11:11:59;36.00;43.40
37052;DHT22;22964;52.272;13.356;2023-08-20T11:14:25;36.10;43.00
37052;DHT22;22964;52.272;13.356;2023-08-20T11:16:51;36.20;42.80
37052;DHT22;22964;52.272;13.356;2023-08-20T11:19:21;36.20;42.60
37052;DHT22;22964;52.272;13.356;2023-08-20T11:21:48;36.30;42.50
37052;DHT22;22964;52.272;13.356;2023-08-20T11:24:13;36.30;42.60
37052;DHT22;22964;52.272;13.356;2023-08-20T11:26:40;36.40;42.40
37052;DHT22;22964;52.272;13.356;2023-08-20T11:29:07;36.50;42.40
37052;DHT22;22964;52.272;13.356;2023-08-20T11:31:33;36.60;42.10
37052;DHT22;22964;52.272;13.356;2023-08-20T11:34:02;36.70;41.70
37052;DHT22;22964;52.272;13.356;2023-08-20T11:36:27;36.80;41.20
37052;DHT22;22964;52.272;13.356;2023-08-20T11:38:54;36.80;41.30
37052;DHT22;22964;52.272;13.356;2023-08-20T11:41:20;37.00;41.00
37052;DHT22;22964;52.272;13.356;2023-08-20T11:43:47;37.00;40.60
37052;DHT22;22964;52.272;13.356;2023-08-20T11:46:14;37.00;40.00
37052;DHT22;22964;52.272;13.356;2023-08-20T11:49:02;37.10;40.00
37052;DHT22;22964;52.272;13.356;2023-08-20T11:51:42;37.10;39.20
37052;DHT22;22964;52.272;13.356;2023-08-20T11:54:09;37.10;38.80
37052;DHT22;22964;52.272;13.356;2023-08-20T11:56:35;37.10;39.80
37052;DHT22;22964;52.272;13.356;2023-08-20T11:59:02;37.20;40.20
37052;DHT22;22964;52.272;13.356;2023-08-20T12:01:33;37.20;39.50
37052;DHT22;22964;52.272;13.356;2023-08-20T12:04:01;37.20;38.70
37052;DHT22;22964;52.272;13.356;2023-08-20T12:06:27;37.30;39.20
37052;DHT22;22964;52.272;13.356;2023-08-20T12:08:56;37.40;39.20
37052;DHT22;22964;52.272;13.356;2023-08-20T12:11:32;37.40;38.80
37052;DHT22;22964;52.272;13.356;2023-08-20T12:13:58;37.50;37.80
37052;DHT22;22964;52.272;13.356;2023-08-20T12:16:24;37.50;39.00
37052;DHT22;22964;52.272;13.356;2023-08-20T12:18:51;37.60;39.00
37052;DHT22;22964;52.272;13.356;2023-08-20T12:21:19;37.60;38.80
37052;DHT22;22964;52.272;13.356;2023-08-20T12:23:44;37.70;38.60
37052;DHT22;22964;52.272;13.356;2023-08-20T12:26:10;37.70;38.90
37052;DHT22;22964;52.272;13.356;2023-08-20T12:28:36;37.80;38.40
37052;DHT22;22964;52.272;13.356;2023-08-20T12:31:01;37.80;38.30
37052;DHT22;22964;52.272;13.356;2023-08-20T12:33:28;37.80;38.10
37052;DHT22;22964;52.272;13.356;2023-08-20T12:35:55;37.90;38.00
37052;DHT22;22964;52.272;13.356;2023-08-20T12:38:21;37.90;37.70
37052;DHT22;22964;52.272;13.356;2023-08-20T12:40:46;37.90;37.70
37052;DHT22;22964;52.272;13.356;2023-08-20T12:43:12;37.90;37.30
37052;DHT22;22964;52.272;13.356;2023-08-20T12:45:38;37.90;37.10
37052;DHT22;22964;52.272;13.356;2023-08-20T12:48:04;37.80;37.10
37052;DHT22;22964;52.272;13.356;2023-08-20T12:50:30;37.80;37.10
37052;DHT22;22964;52.272;13.356;2023-08-20T12:52:56;37.80;37.00
37052;DHT22;22964;52.272;13.356;2023-08-20T12:55:22;37.80;36.50
37052;DHT22;22964;52.272;13.356;2023-08-20T12:57:53;37.80;36.70
37052;DHT22;22964;52.272;13.356;2023-08-20T13:00:21;37.80;35.80
37052;DHT22;22964;52.272;13.356;2023-08-20T13:02:46;37.70;36.20
37052;DHT22;22964;52.272;13.356;2023-08-20T13:05:13;37.80;35.90
37052;DHT22;22964;52.272;13.356;2023-08-20T13:07:39;37.70;35.50
37052;DHT22;22964;52.272;13.356;2023-08-20T13:10:05;37.70;35.40
37052;DHT22;22964;52.272;13.356;2023-08-20T13:12:32;37.60;35.50
37052;DHT22;22964;52.272;13.356;2023-08-20T13:14:59;37.60;35.60
37052;DHT22;22964;52.272;13.356;2023-08-20T13:17:25;37.50;35.40
37052;DHT22;22964;52.272;13.356;2023-08-20T13:19:51;37.50;35.40
37052;DHT22;22964;52.272;13.356;2023-08-20T13:22:17;37.40;35.80
37052;DHT22;22964;52.272;13.356;2023-08-20T13:24:43;37.30;35.70
37052;DHT22;22964;52.272;13.356;2023-08-20T13:27:09;37.30;35.70
37052;DHT22;22964;52.272;13.356;2023-08-20T13:29:35;37.20;35.80
37052;DHT22;22964;52.272;13.356;2023-08-20T13:32:00;37.10;36.40
37052;DHT22;22964;52.272;13.356;2023-08-20T13:34:26;37.10;35.30
37052;DHT22;22964;52.272;13.356;2023-08-20T13:36:52;37.00;35.10
37052;DHT22;22964;52.272;13.356;2023-08-20T13:39:18;36.90;35.20
37052;DHT22;22964;52.272;13.356;2023-08-20T13:41:45;36.90;35.30
37052;DHT22;22964;52.272;13.356;2023-08-20T13:44:11;36.80;35.00
37052;DHT22;22964;52.272;13.356;2023-08-20T13:46:36;36.80;35.20
37052;DHT22;22964;52.272;13.356;2023-08-20T13:49:02;36.70;35.10
37052;DHT22;22964;52.272;13.356;2023-08-20T13:51:29;36.70;35.20
37052;DHT22;22964;52.272;13.356;2023-08-20T13:53:55;36.70;35.70
37052;DHT22;22964;52.272;13.356;2023-08-20T13:56:21;36.70;34.80
37052;DHT22;22964;52.272;13.356;2023-08-20T13:58:47;36.70;35.20
37052;DHT22;22964;52.272;13.356;2023-08-20T14:01:13;36.70;35.20
37052;DHT22;22964;52.272;13.356;2023-08-20T14:03:39;36.70;34.80
37052;DHT22;22964;52.272;13.356;2023-08-20T14:06:05;36.70;34.70
37052;DHT22;22964;52.272;13.356;2023-08-20T14:08:32;36.80;34.60
37052;DHT22;22964;52.272;13.356;2023-08-20T14:10:58;36.70;34.80
37052;DHT22;22964;52.272;13.356;2023-08-20T14:13:23;36.70;34.60
37052;DHT22;22964;52.272;13.356;2023-08-20T14:15:49;36.60;34.40
37052;DHT22;22964;52.272;13.356;2023-08-20T14:18:15;36.60;34.20
37052;DHT22;22964;52.272;13.356;2023-08-20T14:20:41;36.60;34.50
37052;DHT22;22964;52.272;13.356;2023-08-20T14:23:06;36.50;34.70
37052;DHT22;22964;52.272;13.356;2023-08-20T14:25:32;36.50;35.00
37052;DHT22;22964;52.272;13.356;2023-08-20T14:27:58;36.60;35.20
37052;DHT22;22964;52.272;13.356;2023-08-20T14:30:24;36.70;35.40
37052;DHT22;22964;52.272;13.356;2023-08-20T14:32:49;36.80;35.10
37052;DHT22;22964;52.272;13.356;2023-08-20T14:35:15;36.90;35.20
37052;DHT22;22964;52.272;13.356;2023-08-20T14:37:41;36.90;34.90
37052;DHT22;22964;52.272;13.356;2023-08-20T14:40:07;37.00;34.90
37052;DHT22;22964;52.272;13.356;2023-08-20T14:42:35;37.10;34.20
37052;DHT22;22964;52.272;13.356;2023-08-20T14:45:00;37.10;34.40
37052;DHT22;22964;52.272;13.356;2023-08-20T14:47:26;37.10;34.40
37052;DHT22;22964;52.272;13.356;2023-08-20T14:49:52;37.20;35.50
37052;DHT22;22964;52.272;13.356;2023-08-20T14:52:17;37.20;34.30
37052;DHT22;22964;52.272;13.356;2023-08-20T14:54:43;37.30;34.20
37052;DHT22;22964;52.272;13.356;2023-08-20T14:57:09;37.30;34.20
37052;DHT22;22964;52.272;13.356;2023-08-20T14:59:34;37.40;34.00
37052;DHT22;22964;52.272;13.356;2023-08-20T15:02:00;37.40;33.70
37052;DHT22;22964;52.272;13.356;2023-08-20T15:04:26;37.30;33.60
37052;DHT22;22964;52.272;13.356;2023-08-20T15:06:51;37.30;33.40
37052;DHT22;22964;52.272;13.356;2023-08-20T15:09:17;37.30;33.40
37052;DHT22;22964;52.272;13.356;2023-08-20T15:11:43;37.20;33.30
37052;DHT22;22964;52.272;13.356;2023-08-20T15:14:09;37.10;33.70
37052;DHT22;22964;52.272;13.356;2023-08-20T15:16:35;37.10;33.80
37052;DHT22;22964;52.272;13.356;2023-08-20T15:19:01;37.00;33.70
37052;DHT22;22964;52.272;13.356;2023-08-20T15:21:27;37.00;33.70
37052;DHT22;22964;52.272;13.356;2023-08-20T15:23:53;37.00;33.70